This is the latest recevied weather packets stored in our database for station/object OK1FET-14. If no packets are shown the sender has not sent any weather packets the latest 10 day(s).
| Time | Temp. | Humidity | Pressure | Rain* | Wind** | Luminosity | Snow |
|---|---|---|---|---|---|---|---|
| 1788009611 | 22.78° C | 46% | 1017.7 hPa | - | - | - | - |
| 1788009611 | 22.78° C | 46% | 1017.7 hPa | - | - | - | - |
| 1788009330 | 21.11° C | 51% | 1017.8 hPa | - | - | - | - |
| 1788009330 | 21.11° C | 51% | 1017.8 hPa | - | - | - | - |
| 1788009330 | 21.11° C | 51% | 1017.8 hPa | - | - | - | - |
| 1788009330 | 21.11° C | 51% | 1017.8 hPa | - | - | - | - |
| 1788009049 | 22.78° C | 45% | 1017.8 hPa | - | - | - | - |
| 1788009049 | 22.78° C | 45% | 1017.8 hPa | - | - | - | - |
| 1788009049 | 22.78° C | 45% | 1017.8 hPa | - | - | - | - |
| 1788008768 | 23.33° C | 46% | 1017.8 hPa | - | - | - | - |
| 1788008768 | 23.33° C | 46% | 1017.8 hPa | - | - | - | - |
| 1788008768 | 23.33° C | 46% | 1017.8 hPa | - | - | - | - |
| 1788008487 | 21.67° C | 49% | 1017.9 hPa | - | - | - | - |
| 1788008487 | 21.67° C | 49% | 1017.9 hPa | - | - | - | - |
| 1788008487 | 21.67° C | 49% | 1017.9 hPa | - | - | - | - |
| 1788008206 | 22.78° C | 48% | 1017.9 hPa | - | - | - | - |
| 1788008206 | 22.78° C | 48% | 1017.9 hPa | - | - | - | - |
| 1788008206 | 22.78° C | 48% | 1017.9 hPa | - | - | - | - |
| 1788007925 | 22.22° C | 48% | 1017.8 hPa | - | - | - | - |
| 1788007925 | 22.22° C | 48% | 1017.8 hPa | - | - | - | - |
| 1788007924 | 22.22° C | 48% | 1017.8 hPa | - | - | - | - |
| 1788007643 | 23.33° C | 46% | 1017.9 hPa | - | - | - | - |
| 1788007643 | 23.33° C | 46% | 1017.9 hPa | - | - | - | - |
| 1788007643 | 23.33° C | 46% | 1017.9 hPa | - | - | - | - |
| 1788007362 | 22.78° C | 47% | 1017.8 hPa | - | - | - | - |
* Rain since midnight (hover to see other rain measurements)
** Current wind speed in m/s (hover to see current wind gust speed)